createdAt,value
2023-01-11T00:00:27.986Z,4.47
2023-01-11T00:03:02.416Z,5.85
2023-01-11T00:05:29.180Z,5.25
2023-01-11T00:07:56.099Z,1.40
2023-01-11T00:10:23.349Z,3.63
2023-01-11T00:12:49.907Z,2.42
2023-01-11T00:15:16.914Z,1.88
2023-01-11T00:17:43.525Z,2.40
2023-01-11T00:20:10.952Z,3.53
2023-01-11T00:22:37.930Z,2.13
2023-01-11T00:25:05.231Z,4.55
2023-01-11T00:27:32.057Z,3.45
2023-01-11T00:29:58.654Z,5.82
2023-01-11T00:32:27.155Z,2.22
2023-01-11T00:34:54.380Z,3.10
2023-01-11T00:37:21.440Z,3.58
2023-01-11T00:39:48.022Z,2.50
2023-01-11T00:42:33.282Z,2.55
2023-01-11T00:45:18.552Z,3.75
2023-01-11T00:47:57.393Z,2.58
2023-01-11T00:50:25.296Z,2.45
2023-01-11T00:52:52.052Z,2.75
2023-01-11T00:55:18.806Z,2.65
2023-01-11T00:57:45.425Z,3.25
2023-01-11T01:00:12.644Z,2.33
2023-01-11T01:02:39.694Z,1.95
2023-01-11T01:05:07.129Z,1.45
2023-01-11T01:07:33.724Z,4.00
2023-01-11T01:10:00.283Z,2.00
2023-01-11T01:12:45.543Z,1.20
2023-01-11T01:15:12.389Z,7.88
2023-01-11T01:17:38.970Z,1.42
2023-01-11T01:20:06.480Z,3.85
2023-01-11T01:22:33.736Z,4.07
2023-01-11T01:25:00.296Z,2.75
2023-01-11T01:27:26.901Z,2.03
2023-01-11T01:29:53.485Z,1.73
2023-01-11T01:32:20.049Z,2.38
2023-01-11T01:34:46.628Z,1.33
2023-01-11T01:37:15.720Z,1.33
2023-01-11T01:39:42.404Z,2.55
2023-01-11T01:42:14.985Z,1.10
2023-01-11T01:44:58.064Z,4.45
2023-01-11T01:47:46.518Z,2.20
2023-01-11T01:50:25.005Z,2.58
2023-01-11T01:52:56.252Z,1.02
2023-01-11T01:55:33.395Z,2.78
2023-01-11T01:58:04.347Z,2.20
2023-01-11T02:00:31.274Z,1.60
2023-01-11T02:02:59.701Z,2.95
2023-01-11T02:05:26.734Z,1.65
2023-01-11T02:07:56.203Z,3.25
2023-01-11T02:10:23.505Z,2.35
2023-01-11T02:12:55.533Z,6.63
2023-01-11T02:15:22.909Z,1.63
2023-01-11T02:17:49.555Z,2.05
2023-01-11T02:20:33.988Z,2.45
2023-01-11T02:23:16.175Z,3.47
2023-01-11T02:25:45.825Z,1.60
2023-01-11T02:28:24.608Z,5.35
2023-01-11T02:31:03.204Z,3.10
2023-01-11T02:33:47.895Z,7.93
2023-01-11T02:36:37.960Z,3.42
2023-01-11T02:39:30.866Z,2.88
2023-01-11T02:42:28.199Z,1.70
2023-01-11T02:45:16.969Z,2.15
2023-01-11T02:47:55.491Z,5.60
2023-01-11T02:50:26.338Z,2.53
2023-01-11T02:53:05.814Z,3.90
2023-01-11T02:55:41.684Z,3.45
2023-01-11T02:58:10.869Z,2.33
2023-01-11T03:00:39.571Z,3.05
2023-01-11T03:03:18.008Z,1.98
2023-01-11T03:05:57.599Z,1.13
2023-01-11T03:08:33.120Z,2.30
2023-01-11T03:11:07.373Z,3.03
2023-01-11T03:14:03.522Z,2.00
2023-01-11T03:16:50.915Z,2.72
2023-01-11T03:19:42.800Z,4.00
2023-01-11T03:22:27.878Z,2.75
2023-01-11T03:25:13.987Z,3.30
2023-01-11T03:28:22.119Z,2.83
2023-01-11T03:31:01.087Z,4.22
2023-01-11T03:33:54.736Z,1.83
2023-01-11T03:36:35.723Z,2.92
2023-01-11T03:39:05.516Z,4.97
2023-01-11T03:41:36.929Z,2.50
2023-01-11T03:44:06.086Z,2.30
2023-01-11T03:46:44.633Z,2.13
2023-01-11T03:49:20.397Z,4.68
2023-01-11T03:51:49.381Z,2.05
2023-01-11T03:54:22.018Z,1.23
2023-01-11T03:57:13.322Z,1.60
2023-01-11T03:59:40.447Z,1.42
2023-01-11T04:02:28.059Z,2.60
2023-01-11T04:04:54.734Z,1.83
2023-01-11T04:07:21.384Z,2.75
2023-01-11T04:09:47.955Z,2.85
2023-01-11T04:12:14.767Z,6.85
2023-01-11T04:14:41.414Z,1.80
2023-01-11T04:17:37.151Z,1.98
2023-01-11T04:20:04.078Z,1.95
2023-01-11T04:22:30.649Z,4.03
2023-01-11T04:24:57.227Z,2.08
2023-01-11T04:27:23.803Z,2.83
2023-01-11T04:29:50.356Z,4.82
2023-01-11T04:32:17.075Z,3.30
2023-01-11T04:34:43.713Z,1.52
2023-01-11T04:37:11.890Z,1.92
2023-01-11T04:39:38.723Z,3.50
2023-01-11T04:42:20.946Z,3.15
2023-01-11T04:44:49.655Z,1.40
2023-01-11T04:47:16.902Z,5.68
2023-01-11T04:49:43.897Z,2.78
2023-01-11T04:52:12.190Z,2.08
2023-01-11T04:54:39.428Z,4.32
2023-01-11T04:57:07.369Z,7.72
2023-01-11T04:59:34.102Z,1.70
2023-01-11T05:02:00.751Z,1.70
2023-01-11T05:04:27.353Z,1.23
2023-01-11T05:06:53.993Z,1.35
2023-01-11T05:09:20.783Z,4.65
2023-01-11T05:11:47.386Z,2.08
2023-01-11T05:14:15.118Z,1.65
2023-01-11T05:16:42.580Z,1.77
2023-01-11T05:19:11.264Z,1.92
2023-01-11T05:21:40.591Z,4.20
2023-01-11T05:24:11.093Z,1.27
2023-01-11T05:26:39.883Z,1.02
2023-01-11T05:29:11.022Z,1.15
2023-01-11T05:31:39.442Z,0.85
2023-01-11T05:34:06.944Z,1.67
2023-01-11T05:36:34.755Z,2.47
2023-01-11T05:39:01.705Z,0.93
2023-01-11T05:41:28.464Z,4.65
2023-01-11T05:44:14.285Z,1.00
2023-01-11T05:46:42.518Z,1.48
2023-01-11T05:49:10.410Z,1.48
2023-01-11T05:51:40.669Z,2.08
2023-01-11T05:54:10.404Z,1.20
2023-01-11T05:56:37.032Z,1.92
2023-01-11T05:59:04.026Z,3.47
2023-01-11T06:01:31.280Z,1.80
2023-01-11T06:03:57.954Z,1.20
2023-01-11T06:06:24.661Z,1.45
2023-01-11T06:08:51.281Z,1.80
2023-01-11T06:11:17.861Z,12.50
2023-01-11T06:13:44.664Z,1.13
2023-01-11T06:16:16.741Z,2.67
2023-01-11T06:18:47.225Z,1.80
2023-01-11T06:21:14.855Z,1.40
2023-01-11T06:23:45.065Z,1.50
2023-01-11T06:26:14.582Z,1.60
2023-01-11T06:28:41.233Z,1.98
2023-01-11T06:31:08.529Z,1.23
2023-01-11T06:33:36.613Z,1.65
2023-01-11T06:36:09.106Z,1.80
2023-01-11T06:38:36.426Z,1.65
2023-01-11T06:41:05.233Z,1.40
2023-01-11T06:43:32.551Z,1.63
2023-01-11T06:45:59.970Z,1.00
2023-01-11T06:48:27.177Z,1.25
2023-01-11T06:50:56.393Z,1.00
2023-01-11T06:53:26.232Z,1.55
2023-01-11T06:55:56.362Z,0.90
2023-01-11T06:58:23.749Z,0.85
2023-01-11T07:00:52.249Z,1.52
2023-01-11T07:03:20.473Z,1.48
2023-01-11T07:05:47.410Z,1.05
2023-01-11T07:08:14.158Z,1.02
2023-01-11T07:10:41.618Z,0.93
2023-01-11T07:13:08.184Z,0.90
2023-01-11T07:15:34.961Z,1.33
2023-01-11T07:18:02.214Z,1.85
2023-01-11T07:20:29.553Z,1.20
2023-01-11T07:23:00.309Z,1.23
2023-01-11T07:25:28.047Z,1.38
2023-01-11T07:28:02.058Z,1.50
2023-01-11T07:30:30.544Z,1.58
2023-01-11T07:32:58.595Z,0.90
2023-01-11T07:35:28.097Z,1.25
2023-01-11T07:37:55.493Z,0.93
2023-01-11T07:40:22.177Z,0.98
2023-01-11T07:43:11.378Z,0.75
2023-01-11T07:45:47.222Z,0.75
2023-01-11T07:48:15.349Z,0.70
2023-01-11T07:50:44.836Z,0.85
2023-01-11T07:53:12.531Z,0.50
2023-01-11T07:55:40.269Z,1.25
2023-01-11T07:58:10.569Z,0.80
2023-01-11T08:00:37.173Z,1.20
2023-01-11T08:03:03.865Z,0.88
2023-01-11T08:05:30.664Z,1.13
2023-01-11T08:07:57.705Z,2.38
2023-01-11T08:10:24.675Z,3.10
2023-01-11T08:13:10.300Z,3.63
2023-01-11T08:15:37.080Z,1.42
2023-01-11T08:18:05.674Z,1.20
2023-01-11T08:20:32.632Z,2.25
2023-01-11T08:23:06.675Z,0.98
2023-01-11T08:25:33.707Z,1.27
2023-01-11T08:28:05.272Z,0.98
2023-01-11T08:30:32.173Z,1.13
2023-01-11T08:33:00.912Z,3.78
2023-01-11T08:35:27.601Z,1.92
2023-01-11T08:37:54.237Z,1.85
2023-01-11T08:40:23.722Z,2.10
2023-01-11T08:42:57.091Z,1.13
2023-01-11T08:45:24.207Z,2.00
2023-01-11T08:47:51.805Z,1.25
2023-01-11T08:50:19.108Z,2.22
2023-01-11T08:52:46.781Z,1.90
2023-01-11T08:55:13.551Z,1.15
2023-01-11T08:57:40.119Z,1.10
2023-01-11T09:00:08.499Z,0.88
2023-01-11T09:02:35.159Z,0.88
2023-01-11T09:05:01.855Z,6.07
2023-01-11T09:07:28.477Z,1.60
2023-01-11T09:09:55.027Z,1.38
2023-01-11T09:12:21.690Z,1.30
2023-01-11T09:14:48.329Z,1.23
2023-01-11T09:17:14.920Z,1.90
2023-01-11T09:19:41.494Z,1.42
2023-01-11T09:22:08.092Z,2.80
2023-01-11T09:24:34.659Z,1.58
2023-01-11T09:27:01.488Z,1.25
2023-01-11T09:29:28.198Z,1.02
2023-01-11T09:31:54.852Z,1.77
2023-01-11T09:34:21.651Z,0.80
2023-01-11T09:36:49.003Z,1.90
2023-01-11T09:39:20.384Z,1.50
2023-01-11T09:42:08.792Z,0.82
2023-01-11T09:44:36.675Z,1.40
2023-01-11T09:47:19.519Z,1.23
2023-01-11T09:49:54.356Z,3.13
2023-01-11T09:52:36.094Z,2.33
2023-01-11T09:55:02.865Z,0.90
2023-01-11T09:57:41.358Z,0.80
2023-01-11T10:00:44.466Z,1.15
2023-01-11T10:03:32.903Z,1.33
2023-01-11T10:06:14.948Z,1.08
2023-01-11T10:18:37.854Z,2.30
2023-01-11T10:19:05.850Z,0.85
2023-01-11T10:22:15.606Z,1.05
2023-01-11T10:24:46.127Z,0.90
2023-01-11T10:27:38.717Z,1.73
2023-01-11T10:33:52.323Z,1.45
2023-01-11T10:36:55.633Z,1.95
2023-01-11T10:39:49.139Z,1.48
2023-01-11T10:42:22.607Z,1.40
2023-01-11T10:45:03.658Z,2.55
2023-01-11T10:47:49.775Z,2.97
2023-01-11T10:50:38.206Z,1.42
2023-01-11T10:53:29.190Z,1.40
2023-01-11T10:56:19.389Z,1.27
2023-01-11T10:59:06.101Z,1.30
2023-01-11T11:01:57.131Z,1.40
2023-01-11T11:04:43.551Z,1.80
2023-01-11T11:07:19.021Z,2.42
2023-01-11T11:10:00.829Z,3.92
2023-01-11T11:12:31.735Z,9.07
2023-01-11T11:15:07.183Z,2.00
2023-01-11T11:17:46.526Z,3.78
2023-01-11T11:20:25.627Z,2.20
2023-01-11T11:22:54.082Z,3.55
2023-01-11T11:25:43.290Z,2.78
2023-01-11T11:28:22.289Z,1.75
2023-01-11T11:30:53.522Z,2.38
2023-01-11T11:33:37.706Z,3.03
2023-01-11T11:36:12.721Z,2.20
2023-01-11T11:39:00.910Z,1.88
2023-01-11T11:41:27.644Z,2.38
2023-01-11T11:44:14.597Z,3.85
2023-01-11T11:46:41.492Z,2.38
2023-01-11T11:49:27.169Z,5.00
2023-01-11T11:51:54.675Z,2.80
2023-01-11T11:54:40.649Z,4.50
2023-01-11T11:57:20.822Z,2.50
2023-01-11T11:59:50.001Z,5.85
2023-01-11T12:02:30.372Z,2.30
2023-01-11T12:04:59.450Z,2.13
2023-01-11T12:07:38.080Z,6.25
2023-01-11T12:10:16.205Z,6.35
2023-01-11T12:13:00.630Z,3.28
2023-01-11T12:15:32.800Z,3.17
2023-01-11T12:18:26.962Z,5.53
2023-01-11T12:20:55.013Z,13.20
2023-01-11T12:23:26.313Z,53.35
2023-01-11T12:26:18.667Z,30.08
2023-01-11T12:29:31.607Z,41.22
2023-01-11T12:32:24.997Z,8.75
2023-01-11T12:35:14.268Z,10.02
2023-01-11T12:38:36.077Z,12.75
2023-01-11T12:41:21.202Z,4.90
2023-01-11T12:44:10.798Z,6.03
2023-01-11T12:47:09.746Z,6.72
2023-01-11T12:50:09.092Z,6.82
2023-01-11T12:52:44.579Z,6.38
2023-01-11T12:55:26.211Z,9.10
2023-01-11T12:58:19.221Z,9.23
2023-01-11T13:00:45.769Z,8.85
2023-01-11T13:03:36.627Z,4.70
2023-01-11T13:06:18.738Z,8.95
2023-01-11T13:09:16.665Z,5.32
2023-01-11T13:11:49.543Z,10.45
2023-01-11T13:14:28.081Z,4.63
2023-01-11T13:17:19.160Z,5.28
2023-01-11T13:20:16.761Z,7.15
2023-01-11T13:22:59.765Z,12.70
2023-01-11T13:25:29.616Z,7.30
2023-01-11T13:27:59.506Z,5.93
2023-01-11T13:30:27.059Z,21.08
2023-01-11T13:33:20.414Z,12.07
2023-01-11T13:36:22.820Z,11.30
2023-01-11T13:39:11.880Z,9.55
2023-01-11T13:41:46.146Z,6.53
2023-01-11T13:44:29.287Z,8.32
2023-01-11T13:47:34.023Z,15.10
2023-01-11T13:50:15.594Z,10.48
2023-01-11T13:52:55.841Z,13.73
2023-01-11T13:55:29.327Z,9.07
2023-01-11T13:58:05.817Z,7.93
2023-01-11T14:00:43.164Z,11.88
2023-01-11T14:03:36.174Z,9.07
2023-01-11T14:06:25.570Z,5.78
2023-01-11T14:09:11.329Z,7.68
2023-01-11T14:11:58.212Z,14.68
2023-01-11T14:14:51.421Z,8.55
2023-01-11T14:17:32.835Z,6.97
2023-01-11T14:20:06.353Z,9.95
2023-01-11T14:22:43.797Z,6.05
2023-01-11T14:25:25.506Z,8.40
2023-01-11T14:27:59.232Z,20.42
2023-01-11T14:30:37.732Z,13.00
2023-01-11T14:33:25.942Z,10.15
2023-01-11T14:36:30.278Z,10.23
2023-01-11T14:39:47.886Z,6.15
2023-01-11T14:42:35.696Z,12.55
2023-01-11T14:45:19.407Z,13.88
2023-01-11T14:47:54.676Z,4.07
2023-01-11T14:50:23.960Z,9.95
2023-01-11T14:52:52.582Z,6.18
2023-01-11T14:55:31.725Z,16.52
2023-01-11T14:58:31.015Z,5.60
2023-01-11T15:00:57.542Z,11.43
2023-01-11T15:03:24.087Z,10.45
2023-01-11T15:06:08.992Z,4.20
2023-01-11T15:08:51.320Z,13.07
2023-01-11T15:11:31.477Z,6.07
2023-01-11T15:14:04.727Z,8.98
2023-01-11T15:16:52.782Z,8.85
2023-01-11T15:19:33.717Z,18.27
2023-01-11T15:22:02.921Z,8.05
2023-01-11T15:24:32.139Z,17.80
2023-01-11T15:27:01.351Z,8.45
2023-01-11T15:29:30.983Z,6.97
2023-01-11T15:32:25.563Z,11.13
2023-01-11T15:34:52.521Z,4.85
2023-01-11T15:37:43.375Z,12.00
2023-01-11T15:40:22.455Z,11.98
2023-01-11T15:43:27.472Z,10.77
2023-01-11T15:46:27.839Z,13.32
2023-01-11T15:49:03.526Z,11.75
2023-01-11T15:51:53.092Z,6.88
2023-01-11T15:54:31.620Z,10.77
2023-01-11T15:57:13.614Z,8.55
2023-01-11T15:59:46.357Z,14.18
2023-01-11T16:02:12.899Z,13.02
2023-01-11T16:04:43.001Z,15.23
2023-01-11T16:07:27.517Z,12.00
2023-01-11T16:10:12.553Z,8.75
2023-01-11T16:12:51.503Z,7.85
2023-01-11T16:15:56.990Z,7.78
2023-01-11T16:18:28.358Z,12.15
2023-01-11T16:21:29.195Z,6.20
2023-01-11T16:23:55.996Z,5.70
2023-01-11T16:26:22.770Z,4.80
2023-01-11T16:28:56.985Z,8.15
2023-01-11T16:31:23.977Z,13.48
2023-01-11T16:33:51.789Z,8.10
2023-01-11T16:36:21.799Z,17.42
2023-01-11T16:38:52.374Z,11.32
2023-01-11T16:41:20.406Z,14.27
2023-01-11T16:44:15.223Z,11.90
2023-01-11T16:47:06.736Z,6.53
2023-01-11T16:49:33.696Z,9.43
2023-01-11T16:52:00.501Z,7.68
2023-01-11T16:54:31.009Z,10.25
2023-01-11T16:56:59.022Z,12.38
2023-01-11T16:59:30.469Z,4.45
2023-01-11T17:02:04.916Z,13.53
2023-01-11T17:04:33.084Z,7.03
2023-01-11T17:07:13.633Z,3.83
2023-01-11T17:09:43.057Z,6.68
2023-01-11T17:12:32.089Z,13.82
2023-01-11T17:15:31.213Z,8.52
2023-01-11T17:18:03.008Z,9.48
2023-01-11T17:20:31.419Z,10.73
2023-01-11T17:22:58.615Z,6.43
2023-01-11T17:25:37.323Z,8.85
2023-01-11T17:28:17.610Z,20.08
2023-01-11T17:30:47.388Z,6.53
2023-01-11T17:33:29.205Z,13.15
2023-01-11T17:35:56.215Z,10.50
2023-01-11T17:38:25.136Z,14.52
2023-01-11T17:40:56.113Z,14.10
2023-01-11T17:43:44.002Z,8.05
2023-01-11T17:46:25.283Z,11.27
2023-01-11T17:48:59.752Z,12.95
2023-01-11T17:51:28.751Z,8.50
2023-01-11T17:53:55.515Z,25.52
2023-01-11T17:56:41.566Z,7.45
2023-01-11T17:59:23.307Z,9.35
2023-01-11T18:01:57.548Z,5.28
2023-01-11T18:04:26.375Z,24.55
2023-01-11T18:07:06.458Z,7.68
2023-01-11T18:09:40.011Z,18.75
2023-01-11T18:12:13.136Z,18.00
2023-01-11T18:14:47.891Z,9.43
2023-01-11T18:17:38.921Z,20.17
2023-01-11T18:20:14.943Z,18.92
2023-01-11T18:22:56.685Z,7.32
2023-01-11T18:25:23.231Z,21.02
2023-01-11T18:27:50.291Z,27.77
2023-01-11T18:30:32.013Z,12.82
2023-01-11T18:33:01.831Z,10.95
2023-01-11T18:35:29.521Z,9.20
2023-01-11T18:37:56.440Z,15.52
2023-01-11T18:40:23.054Z,8.40
2023-01-11T18:42:52.508Z,22.15
2023-01-11T18:45:20.143Z,10.23
2023-01-11T18:47:46.719Z,22.20
2023-01-11T18:50:13.872Z,8.43
2023-01-11T18:52:40.621Z,7.63
2023-01-11T18:55:10.098Z,7.57
2023-01-11T18:57:36.650Z,12.82
2023-01-11T19:00:04.518Z,30.25
2023-01-11T19:02:43.158Z,15.23
2023-01-11T19:05:14.609Z,12.02
2023-01-11T19:07:41.191Z,11.38
2023-01-11T19:10:08.306Z,5.88
2023-01-11T19:12:35.202Z,9.77
2023-01-11T19:15:01.772Z,13.50
2023-01-11T19:17:28.597Z,23.52
2023-01-11T19:19:55.267Z,9.55
2023-01-11T19:22:24.570Z,8.10
2023-01-11T19:24:53.727Z,5.35
2023-01-11T19:27:20.371Z,12.27
2023-01-11T19:29:46.938Z,7.65
2023-01-11T19:32:15.551Z,10.25
2023-01-11T19:34:42.710Z,15.77
2023-01-11T19:37:09.330Z,9.48
2023-01-11T19:39:36.313Z,10.18
2023-01-11T19:42:03.207Z,19.58
2023-01-11T19:44:31.386Z,15.07
2023-01-11T19:47:10.501Z,10.48
2023-01-11T19:49:39.637Z,7.68
2023-01-11T19:52:12.189Z,20.52
2023-01-11T19:54:41.732Z,9.82
2023-01-11T19:57:10.741Z,22.65
2023-01-11T19:59:37.622Z,9.05
2023-01-11T20:02:05.223Z,10.73
2023-01-11T20:04:32.768Z,5.85
2023-01-11T20:06:59.545Z,20.65
2023-01-11T20:09:26.188Z,10.48
2023-01-11T20:11:53.222Z,7.85
2023-01-11T20:14:22.204Z,8.68
2023-01-11T20:16:48.788Z,7.78
2023-01-11T20:19:15.583Z,9.60
2023-01-11T20:21:42.370Z,13.15
2023-01-11T20:24:12.790Z,14.68
2023-01-11T20:26:40.433Z,14.50
2023-01-11T20:29:07.359Z,5.15
2023-01-11T20:31:35.351Z,3.10
2023-01-11T20:34:13.570Z,18.52
2023-01-11T20:36:40.322Z,13.00
2023-01-11T20:39:07.128Z,7.70
2023-01-11T20:41:49.186Z,11.63
2023-01-11T20:44:29.433Z,10.45
2023-01-11T20:46:56.646Z,9.90
2023-01-11T20:49:25.555Z,12.63
2023-01-11T20:51:52.278Z,7.13
2023-01-11T20:54:19.324Z,7.93
2023-01-11T20:56:46.854Z,10.82
2023-01-11T20:59:16.427Z,9.50
2023-01-11T21:01:43.618Z,4.32
2023-01-11T21:04:11.434Z,9.52
2023-01-11T21:06:41.039Z,7.90
2023-01-11T21:09:09.918Z,16.08
2023-01-11T21:14:04.850Z,7.00
2023-01-11T21:16:32.101Z,12.07
2023-01-11T21:19:01.378Z,5.32
2023-01-11T21:21:30.047Z,7.28
2023-01-11T21:23:59.069Z,13.15
2023-01-11T21:26:26.969Z,9.10
2023-01-11T21:28:59.337Z,9.13
2023-01-11T21:31:31.454Z,13.00
2023-01-11T21:33:59.014Z,5.95
2023-01-11T21:36:27.338Z,10.38
2023-01-11T21:38:55.157Z,10.35
2023-01-11T21:41:43.955Z,11.93
2023-01-11T21:44:12.284Z,16.75
2023-01-11T21:46:39.917Z,9.80
2023-01-11T21:49:06.580Z,8.60
2023-01-11T21:51:34.359Z,11.63
2023-01-11T21:54:05.145Z,10.90
2023-01-11T21:56:31.994Z,8.88
2023-01-11T21:58:58.745Z,12.95
2023-01-11T22:01:25.315Z,7.82
2023-01-11T22:03:51.930Z,3.63
2023-01-11T22:06:18.756Z,5.82
2023-01-11T22:08:45.969Z,9.75
2023-01-11T22:11:14.775Z,7.63
2023-01-11T22:13:42.001Z,6.43
2023-01-11T22:16:13.838Z,8.88
2023-01-11T22:18:41.195Z,9.68
2023-01-11T22:21:13.409Z,5.18
2023-01-11T22:23:40.990Z,8.43
2023-01-11T22:26:10.321Z,8.20
2023-01-11T22:28:55.823Z,13.05
2023-01-11T22:31:23.415Z,4.20
2023-01-11T22:33:50.366Z,12.07
2023-01-11T22:36:17.070Z,19.42
2023-01-11T22:38:43.768Z,9.73
2023-01-11T22:41:10.612Z,9.60
2023-01-11T22:43:37.292Z,10.20
2023-01-11T22:46:04.063Z,6.28
2023-01-11T22:48:31.400Z,10.63
2023-01-11T22:50:58.455Z,10.50
2023-01-11T22:53:25.087Z,3.13
2023-01-11T22:55:51.666Z,6.90
2023-01-11T22:58:18.230Z,11.35
2023-01-11T23:00:44.849Z,11.68
2023-01-11T23:03:11.549Z,17.55
2023-01-11T23:05:44.844Z,12.55
2023-01-11T23:08:11.885Z,9.65
2023-01-11T23:10:39.203Z,7.85
2023-01-11T23:13:24.527Z,7.47
2023-01-11T23:15:54.496Z,7.75
2023-01-11T23:18:21.589Z,10.48
2023-01-11T23:20:48.177Z,4.38
2023-01-11T23:23:14.840Z,10.27
2023-01-11T23:25:41.409Z,9.75
2023-01-11T23:28:08.291Z,12.60
2023-01-11T23:30:34.879Z,16.17
2023-01-11T23:33:01.482Z,5.85
2023-01-11T23:35:28.109Z,5.82
2023-01-11T23:37:54.920Z,7.72
2023-01-11T23:40:21.532Z,3.85
2023-01-11T23:42:48.099Z,2.78
2023-01-11T23:45:14.918Z,3.42
2023-01-11T23:47:41.498Z,8.07
2023-01-11T23:50:08.746Z,13.18
2023-01-11T23:52:35.380Z,4.72
2023-01-11T23:55:01.977Z,3.10
2023-01-11T23:57:28.581Z,5.28
2023-01-11T23:59:55.210Z,3.40
